Hauptseite
METAR-TAF:

METAR-TAF

Flughäfen :

Flughafen Dortmund

Dortmund, Deutschland

Breite: 51-31N, Länge: 007-37E, Höhe: 127 m

Beobachtung

Neuester Wetterbericht von vor 29 Minuten, um 18:50 UTC
Wind 4 kt aus West, variierte zwischen West/Südwest und Nord/Nordwest
Temperatur 22°C
Luftfeuchtigkeit 57%
Luftdruck 1017 hPa
Sichtweite 10 km oder mehr
keine Wolken unter 1500 m und keine Kumulonimbus oder Gewitterwolken

METAR: EDLW 191850Z 27004KT 240V340 CAVOK 22/13 Q1017

Zeit: 21:19 (19:19 UTC)

Prognose

Neuester Wetterbericht von vor 2 Stunden und 19 Minuten, um 17:00 UTC
Gültige Prognose vom 19 um 18 UTC bis 20 um 18 UTC
Wind 9 kt aus Südwest
Sichtweite 10 km oder mehr
keine Wolken unter 1500 m und keine Kumulonimbus oder Gewitterwolken

TAF: EDLW 191700Z 1918/2018 23009KT CAVOK

Wetterbeobachtungen und Prognosen von mehr als 4000 Flughäfen (METAR und TAF Bericht).

Die verfügbaren Stationen werden durch gelbe und rote Markierungen auf der Karte dargestellt.

Führen Sie die Maus auf sie, um den Namen der Station zu sehen.

Darauf klicken, um die Beobachtung von Wetterbeobachtungen und Prognosen zu sehen.

Um die Karte zu ändern : klicken Sie auf den grünen Tasten mit einem schwarzen Kreuz Zum Vergrößern, auf den grünen Button mit einem Gedankenstrich zu verkleinern, oder auf die grünen Pfeile für benachbarte Karten.


METAR-TAF: